Time;durP1;ratioP1;P1;durP2;ratioP2;P2;SDS_P1;SDS_P2;PMS_P1;PMS_P2;Temp;Humidity;BMP_temperature;BMP_pressure;BME280_temperature;BME280_humidity;BME280_pressure;Samples;Min_cycle;Max_cycle;Signal;HPM_P1;HPM_P2
2022/06/07 00:00:48;;;;;;;6.40;2.72;;;12.10;99.90;;;;;;5088364;28;20051;-77
2022/06/07 00:03:15;;;;;;;3.55;2.35;;;12.10;99.90;;;;;;5091850;28;20098;-77
2022/06/07 00:05:43;;;;;;;4.43;2.35;;;12.10;99.90;;;;;;5089291;28;20070;-77
2022/06/07 00:08:12;;;;;;;2.33;2.13;;;12.00;99.90;;;;;;5073614;28;20055;-78
2022/06/07 00:10:39;;;;;;;4.00;2.83;;;12.00;99.90;;;;;;5089664;28;20040;-78
2022/06/07 00:13:07;;;;;;;4.32;2.28;;;11.90;99.90;;;;;;5070358;28;20048;-77
2022/06/07 00:15:34;;;;;;;4.22;2.40;;;11.90;99.90;;;;;;5068775;28;20560;-77
2022/06/07 00:18:04;;;;;;;3.20;2.53;;;11.90;99.90;;;;;;5073164;28;20598;-77
2022/06/07 00:20:31;;;;;;;6.20;2.85;;;11.90;99.90;;;;;;5088402;28;20446;-77
2022/06/07 00:22:58;;;;;;;3.55;2.83;;;11.90;99.90;;;;;;5090032;28;20047;-77
2022/06/07 00:25:26;;;;;;;4.93;2.25;;;11.90;99.90;;;;;;5078771;28;20052;-76
2022/06/07 00:27:53;;;;;;;3.85;2.67;;;11.80;99.90;;;;;;5069900;28;20083;-77
2022/06/07 00:30:20;;;;;;;3.95;2.80;;;11.80;99.90;;;;;;5080162;28;20558;-77
2022/06/07 00:32:48;;;;;;;5.72;2.60;;;11.80;99.90;;;;;;5091524;28;20048;-76
2022/06/07 00:35:17;;;;;;;8.52;2.92;;;11.80;99.90;;;;;;5088779;28;20060;-78
2022/06/07 00:37:44;;;;;;;7.35;3.15;;;11.70;99.90;;;;;;5073189;28;20075;-77
2022/06/07 00:40:13;;;;;;;9.38;2.88;;;11.70;99.90;;;;;;5074185;28;20080;-77
2022/06/07 00:42:41;;;;;;;8.65;3.20;;;11.70;99.90;;;;;;5053079;28;20048;-77
2022/06/07 00:45:14;;;;;;;9.25;3.08;;;11.70;99.90;;;;;;5071251;28;20048;-77
2022/06/07 00:47:41;;;;;;;;;;;11.70;99.90;;;;;;5074344;28;20036;-77
2022/06/07 00:50:15;;;;;;;6.85;3.75;;;11.60;99.90;;;;;;5090365;28;20074;-77
2022/06/07 00:52:45;;;;;;;10.30;3.33;;;11.60;99.90;;;;;;5088366;28;20048;-77
2022/06/07 00:55:14;;;;;;;6.65;3.22;;;11.60;99.90;;;;;;5072971;28;20052;-76
2022/06/07 00:57:45;;;;;;;7.22;3.30;;;11.50;99.90;;;;;;5065768;28;20055;-76
2022/06/07 01:00:22;;;;;;;13.38;3.40;;;11.50;99.90;;;;;;5069328;28;20051;-78
2022/06/07 01:02:51;;;;;;;6.65;3.33;;;11.50;99.90;;;;;;5068110;28;20056;-77
2022/06/07 01:05:19;;;;;;;6.90;3.90;;;11.50;99.90;;;;;;5069426;28;20049;-78
2022/06/07 01:10:44;;;;;;;10.52;3.40;;;11.50;99.90;;;;;;5088667;28;19935;-78
2022/06/07 01:13:21;;;;;;;9.95;3.58;;;11.50;99.90;;;;;;5089316;28;20048;-78
2022/06/07 01:15:51;;;;;;;8.35;3.15;;;11.50;99.90;;;;;;5087542;28;20044;-77
2022/06/07 01:18:19;;;;;;;10.50;3.10;;;11.50;99.90;;;;;;5089847;28;20089;-77
2022/06/07 01:20:47;;;;;;;13.25;3.95;;;11.40;99.90;;;;;;5071426;28;20052;-77
2022/06/07 01:23:15;;;;;;;11.98;4.15;;;11.40;99.90;;;;;;5089171;28;20044;-78
2022/06/07 01:25:43;;;;;;;18.45;4.30;;;11.40;99.90;;;;;;5087522;28;20048;-77
2022/06/07 01:28:10;;;;;;;29.92;5.50;;;11.50;99.90;;;;;;5089078;28;20047;-77
2022/06/07 01:30:38;;;;;;;35.15;6.10;;;11.50;99.90;;;;;;5072346;28;20044;-78
2022/06/07 01:33:05;;;;;;;29.42;6.18;;;11.50;99.90;;;;;;5081489;28;20512;-77
2022/06/07 01:35:32;;;;;;;27.80;5.80;;;11.50;99.90;;;;;;5073132;28;20059;-77
2022/06/07 01:37:59;;;;;;;31.73;5.93;;;11.50;99.90;;;;;;5068658;28;20759;-77
2022/06/07 01:43:21;;;;;;;30.63;5.10;;;11.50;99.90;;;;;;5025976;28;20044;-77
2022/06/07 01:45:49;;;;;;;23.52;4.78;;;11.50;99.90;;;;;;5088839;28;20512;-77
2022/06/07 01:48:16;;;;;;;17.05;5.40;;;11.50;99.90;;;;;;5087804;28;20542;-77
2022/06/07 01:50:43;;;;;;;25.17;5.28;;;11.50;99.90;;;;;;5072672;28;20135;-77
2022/06/07 01:53:10;;;;;;;23.10;7.00;;;11.40;99.90;;;;;;5066889;28;20583;-77
2022/06/07 01:55:39;;;;;;;27.90;7.10;;;11.40;99.90;;;;;;5051860;28;20049;-77
2022/06/07 01:58:09;;;;;;;19.80;7.85;;;11.40;99.90;;;;;;5052048;28;20044;-77
2022/06/07 02:00:39;;;;;;;28.30;8.18;;;11.40;99.90;;;;;;5052239;28;20044;-77
2022/06/07 02:03:06;;;;;;;32.42;8.10;;;11.40;99.90;;;;;;5082783;28;20048;-77
2022/06/07 02:05:33;;;;;;;22.40;7.15;;;11.40;99.90;;;;;;5075432;28;20052;-79
2022/06/07 02:08:03;;;;;;;22.52;7.90;;;11.50;99.90;;;;;;5093133;28;20516;-79
2022/06/07 02:10:33;;;;;;;19.02;7.53;;;11.60;99.90;;;;;;5092013;28;20131;-78
2022/06/07 02:13:08;;;;;;;38.00;7.05;;;11.60;99.90;;;;;;5070076;28;20177;-79
2022/06/07 02:15:35;;;;;;;28.92;7.68;;;11.60;99.90;;;;;;5092008;28;20814;-78
2022/06/07 02:18:02;;;;;;;30.45;8.55;;;11.70;99.90;;;;;;5093612;28;20496;-79
2022/06/07 02:20:39;;;;;;;25.63;6.82;;;11.70;99.90;;;;;;5090264;28;20131;-79
2022/06/07 02:23:08;;;;;;;37.10;6.72;;;11.70;99.90;;;;;;5075709;28;20495;-79
2022/06/07 02:25:41;;;;;;;20.30;5.88;;;11.80;99.90;;;;;;5091316;28;20067;-78
2022/06/07 02:28:11;;;;;;;30.58;6.15;;;11.80;99.90;;;;;;5092593;28;20504;-80
2022/06/07 02:30:39;;;;;;;29.27;6.60;;;11.80;99.90;;;;;;5089370;28;20048;-79
2022/06/07 02:33:06;;;;;;;32.03;6.57;;;11.80;99.90;;;;;;5055354;28;20044;-80
2022/06/07 02:35:34;;;;;;;36.47;6.43;;;11.90;99.90;;;;;;5072518;28;20114;-79
2022/06/07 02:38:01;;;;;;;38.45;6.30;;;11.90;99.90;;;;;;5073199;28;20080;-78
2022/06/07 02:40:28;;;;;;;37.33;7.05;;;11.90;99.90;;;;;;5077633;28;20052;-79
2022/06/07 02:42:56;;;;;;;20.67;5.60;;;11.90;99.90;;;;;;5071668;28;20416;-78
2022/06/07 02:45:24;;;;;;;26.98;5.47;;;12.00;99.90;;;;;;5071858;28;20139;-78
2022/06/07 02:47:51;;;;;;;20.05;5.72;;;12.00;99.90;;;;;;5072744;28;20049;-78
2022/06/07 02:50:21;;;;;;;16.25;5.60;;;12.00;99.90;;;;;;5092335;28;20048;-79
2022/06/07 02:52:54;;;;;;;13.23;4.00;;;12.00;99.90;;;;;;5089862;28;20067;-79
2022/06/07 02:55:25;;;;;;;14.93;4.18;;;12.10;99.90;;;;;;5087699;28;20143;-79
2022/06/07 02:57:59;;;;;;;21.07;5.27;;;12.10;99.90;;;;;;5089941;28;20138;-79
2022/06/07 03:00:29;;;;;;;13.70;3.58;;;12.10;99.90;;;;;;5092043;28;20293;-79
2022/06/07 03:02:57;;;;;;;10.88;3.20;;;12.10;99.90;;;;;;5072801;28;20052;-79
2022/06/07 03:05:25;;;;;;;5.63;2.30;;;12.10;99.90;;;;;;5085120;28;20048;-80
2022/06/07 03:07:57;;;;;;;8.00;2.28;;;12.20;99.90;;;;;;5062346;28;20044;-79
2022/06/07 03:10:25;;;;;;;3.58;1.77;;;12.20;99.90;;;;;;5053133;28;20040;-79
2022/06/07 03:12:54;;;;;;;4.43;2.00;;;12.30;99.90;;;;;;5070681;28;20048;-80
2022/06/07 03:15:24;;;;;;;2.97;2.15;;;12.40;99.90;;;;;;5071280;28;20095;-79
2022/06/07 03:17:54;;;;;;;4.97;1.65;;;12.50;99.90;;;;;;5070952;28;20086;-80
2022/06/07 03:20:26;;;;;;;;;;;12.60;99.90;;;;;;5074368;28;20585;-80
2022/06/07 03:22:53;;;;;;;2.97;1.83;;;12.70;99.90;;;;;;5091357;28;20724;-80
2022/06/07 03:25:23;;;;;;;4.53;1.80;;;12.70;99.90;;;;;;5089840;28;20036;-80
2022/06/07 03:27:58;;;;;;;5.07;1.70;;;12.70;99.90;;;;;;5070921;28;20058;-79
2022/06/07 03:30:27;;;;;;;5.28;1.75;;;12.70;99.90;;;;;;5052221;28;20044;-79
2022/06/07 03:32:57;;;;;;;4.80;1.55;;;12.80;99.90;;;;;;5059143;28;20052;-79
2022/06/07 03:35:27;;;;;;;5.05;1.65;;;12.90;99.90;;;;;;5089389;28;20048;-78
2022/06/07 03:37:58;;;;;;;2.75;2.08;;;12.90;99.90;;;;;;5092340;28;20066;-78
2022/06/07 03:40:44;;;;;;;2.78;1.42;;;13.00;99.90;;;;;;5087763;28;20067;-79
2022/06/07 03:43:16;;;;;;;8.30;2.22;;;13.00;99.90;;;;;;5090617;28;20139;-78
2022/06/07 03:45:44;;;;;;;2.22;1.23;;;13.10;99.90;;;;;;5059392;28;20080;-78
2022/06/07 03:48:17;;;;;;;3.03;1.50;;;13.10;99.90;;;;;;5070737;28;20048;-78
2022/06/07 03:50:44;;;;;;;2.85;1.58;;;13.20;99.90;;;;;;5069332;28;20053;-78
2022/06/07 03:53:12;;;;;;;3.72;1.40;;;13.20;99.90;;;;;;5072784;28;20056;-80
2022/06/07 03:55:44;;;;;;;2.65;1.45;;;13.30;99.90;;;;;;5090526;28;20050;-80
2022/06/07 03:58:13;;;;;;;2.95;1.30;;;13.40;99.90;;;;;;5088970;28;20063;-80
2022/06/07 04:00:41;;;;;;;3.03;1.20;;;13.40;99.90;;;;;;5090604;28;20044;-80
2022/06/07 04:03:10;;;;;;;3.92;1.48;;;13.40;99.90;;;;;;5088415;28;20044;-79
2022/06/07 04:05:44;;;;;;;4.13;1.63;;;13.50;99.90;;;;;;5090777;28;20075;-81
2022/06/07 04:08:14;;;;;;;2.58;1.30;;;13.60;99.90;;;;;;5072453;28;20060;-82
2022/06/07 04:10:48;;;;;;;3.60;1.50;;;13.70;99.90;;;;;;5089801;28;20040;-82
2022/06/07 04:13:19;;;;;;;6.50;2.22;;;13.70;99.90;;;;;;5088478;28;20427;-80
2022/06/07 04:15:47;;;;;;;2.67;1.42;;;13.80;99.90;;;;;;5087288;28;20488;-79
2022/06/07 04:18:17;;;;;;;2.38;1.33;;;13.80;99.90;;;;;;5060502;28;20405;-80
2022/06/07 04:20:46;;;;;;;1.52;1.27;;;13.80;99.90;;;;;;5086171;28;20508;-80
2022/06/07 04:23:16;;;;;;;8.32;1.40;;;13.90;99.90;;;;;;5066815;28;20045;-80
2022/06/07 04:25:44;;;;;;;4.95;1.30;;;14.00;99.90;;;;;;5078383;28;20396;-80
2022/06/07 04:28:14;;;;;;;1.40;1.30;;;14.10;99.90;;;;;;5068639;28;20423;-79
2022/06/07 04:30:44;;;;;;;3.13;0.90;;;14.10;99.90;;;;;;5085371;28;20052;-79
2022/06/07 04:33:12;;;;;;;1.67;1.25;;;14.20;99.90;;;;;;5088656;28;20162;-79
2022/06/07 04:35:42;;;;;;;3.60;1.25;;;14.30;99.90;;;;;;5084391;28;20131;-80
2022/06/07 04:38:12;;;;;;;1.23;1.10;;;14.30;99.90;;;;;;5070276;28;20122;-80
2022/06/07 04:40:43;;;;;;;;;;;14.40;99.90;;;;;;5066222;28;20052;-80
2022/06/07 04:43:13;;;;;;;11.32;8.65;;;14.50;99.90;;;;;;5089096;28;19928;-80
2022/06/07 04:45:41;;;;;;;2.92;1.17;;;14.60;99.90;;;;;;5088941;28;20131;-80
2022/06/07 04:48:13;;;;;;;1.83;1.20;;;14.60;99.90;;;;;;5088592;28;20052;-80
2022/06/07 04:51:03;;;;;;;3.58;1.50;;;14.60;99.90;;;;;;5087438;28;20063;-80
2022/06/07 04:53:39;;;;;;;4.32;1.02;;;14.70;99.90;;;;;;5083239;28;20427;-79
2022/06/07 04:56:11;;;;;;;3.03;1.05;;;14.70;99.90;;;;;;5073224;28;20048;-80
2022/06/07 04:58:39;;;;;;;4.45;1.23;;;14.80;99.90;;;;;;5069806;28;20052;-80
2022/06/07 05:01:10;;;;;;;2.92;1.20;;;14.90;99.90;;;;;;5082689;28;20487;-78
2022/06/07 05:03:37;;;;;;;2.67;1.13;;;14.90;99.90;;;;;;5083227;28;20253;-78
2022/06/07 05:06:17;;;;;;;1.58;0.90;;;14.90;99.90;;;;;;5071727;28;20055;-78
2022/06/07 05:08:48;;;;;;;1.30;0.88;;;15.00;99.90;;;;;;5084279;28;20127;-76
2022/06/07 05:11:16;;;;;;;6.18;1.48;;;15.10;99.90;;;;;;5082438;28;20537;-75
2022/06/07 05:13:44;;;;;;;3.22;1.15;;;15.20;99.90;;;;;;5081093;28;20047;-75
2022/06/07 05:16:11;;;;;;;7.47;1.73;;;15.30;99.90;;;;;;5070020;28;20146;-74
2022/06/07 05:18:41;;;;;;;3.42;1.73;;;15.40;99.90;;;;;;5076212;28;20329;-76
2022/06/07 05:21:13;;;;;;;2.60;1.20;;;15.50;99.90;;;;;;5068328;28;20590;-75
2022/06/07 05:23:41;;;;;;;6.28;2.05;;;15.70;99.90;;;;;;5052168;28;20045;-74
2022/06/07 05:26:15;;;;;;;1.45;1.35;;;15.90;99.90;;;;;;5076426;28;20048;-74
2022/06/07 05:28:43;;;;;;;6.30;1.42;;;16.00;99.90;;;;;;5057158;28;20043;-75
2022/06/07 05:31:13;;;;;;;3.42;1.70;;;16.10;99.90;;;;;;5077115;28;20486;-75
2022/06/07 05:33:47;;;;;;;2.15;1.02;;;16.20;99.90;;;;;;5081786;28;20132;-75
2022/06/07 05:36:15;;;;;;;4.35;1.40;;;16.40;99.90;;;;;;5075062;28;20109;-76
2022/06/07 05:38:43;;;;;;;3.08;1.45;;;16.70;99.90;;;;;;5075756;28;20060;-76
2022/06/07 05:41:21;;;;;;;2.75;1.20;;;17.20;99.90;;;;;;5091959;28;20079;-76
2022/06/07 05:43:50;;;;;;;3.65;1.40;;;17.70;99.90;;;;;;5088568;28;20048;-76
2022/06/07 05:46:22;;;;;;;5.57;1.20;;;18.30;99.90;;;;;;5103608;28;20093;-77
2022/06/07 05:48:56;;;;;;;3.42;1.52;;;18.90;99.90;;;;;;5072432;28;20063;-75
2022/06/07 05:51:43;;;;;;;4.50;1.50;;;19.50;99.90;;;;;;5092312;28;20154;-77
2022/06/07 05:54:12;;;;;;;3.40;1.33;;;20.10;99.90;;;;;;5076056;28;20043;-76
2022/06/07 05:56:42;;;;;;;2.63;1.00;;;20.70;98.70;;;;;;5078825;28;20143;-80
2022/06/07 05:59:10;;;;;;;1.40;0.90;;;21.10;93.10;;;;;;5075191;28;20079;-81
2022/06/07 06:01:38;;;;;;;3.20;1.20;;;21.70;82.60;;;;;;5088075;28;20079;-82
2022/06/07 06:04:08;;;;;;;5.68;1.20;;;21.90;83.30;;;;;;5082239;28;20036;-77
2022/06/07 06:06:42;;;;;;;2.47;0.90;;;22.00;79.80;;;;;;5076565;28;20043;-81
2022/06/07 06:12:00;;;;;;;5.40;1.20;;;22.90;72.90;;;;;;5086976;28;20451;-81
2022/06/07 06:14:50;;;;;;;2.67;1.10;;;23.50;71.30;;;;;;5081432;28;20508;-77
2022/06/07 06:17:24;;;;;;;2.20;0.85;;;23.80;67.60;;;;;;5073106;28;20124;-77
2022/06/07 06:19:57;;;;;;;6.80;1.27;;;23.90;63.60;;;;;;5081057;28;20055;-76
2022/06/07 06:22:24;;;;;;;6.47;1.30;;;24.20;60.50;;;;;;5060752;28;20055;-76
2022/06/07 06:25:03;;;;;;;4.72;1.00;;;24.40;59.70;;;;;;5064221;28;20170;-76
2022/06/07 06:27:33;;;;;;;1.30;1.20;;;24.70;58.60;;;;;;5057848;28;20586;-79
2022/06/07 06:30:04;;;;;;;3.73;1.07;;;24.90;58.70;;;;;;5080332;28;20058;-78
2022/06/07 06:32:33;;;;;;;4.88;1.33;;;25.10;57.60;;;;;;5080554;28;20047;-79
2022/06/07 06:35:02;;;;;;;3.58;1.10;;;25.50;57.00;;;;;;5078522;28;20044;-78
2022/06/07 06:37:31;;;;;;;3.47;0.90;;;25.80;56.00;;;;;;5079338;28;20059;-79
2022/06/07 06:40:03;;;;;;;2.28;1.00;;;26.10;54.70;;;;;;5082760;28;20519;-79
2022/06/07 06:42:34;;;;;;;1.17;0.80;;;26.20;54.40;;;;;;5079459;28;20041;-79
2022/06/07 06:45:20;;;;;;;4.38;1.25;;;26.50;54.80;;;;;;5083038;28;20130;-76
2022/06/07 06:47:51;;;;;;;0.90;0.70;;;26.80;53.60;;;;;;5072202;28;20052;-75
2022/06/07 06:50:18;;;;;;;2.40;0.88;;;27.00;52.20;;;;;;5083033;28;20789;-77
2022/06/07 06:52:46;;;;;;;6.88;1.75;;;27.10;52.10;;;;;;5079418;28;20060;-76
2022/06/07 06:55:14;;;;;;;2.95;1.30;;;27.30;52.90;;;;;;5069329;28;20050;-76
2022/06/07 06:57:43;;;;;;;5.40;1.20;;;27.40;53.00;;;;;;5093099;28;20056;-76
2022/06/07 07:00:12;;;;;;;3.17;1.30;;;27.50;53.50;;;;;;5088615;28;20127;-77
2022/06/07 07:02:43;;;;;;;4.15;1.30;;;27.60;52.00;;;;;;5072257;28;20692;-79
2022/06/07 07:05:14;;;;;;;1.13;0.93;;;27.70;52.40;;;;;;5089421;28;20052;-79
2022/06/07 07:07:46;;;;;;;2.38;1.05;;;27.90;53.30;;;;;;5079127;28;20052;-79
2022/06/07 07:10:19;;;;;;;4.07;0.85;;;28.10;50.80;;;;;;5072678;28;20052;-82
2022/06/07 07:12:48;;;;;;;5.70;0.90;;;28.20;50.00;;;;;;5070499;28;20504;-76
2022/06/07 07:15:20;;;;;;;3.17;0.80;;;28.40;47.10;;;;;;5074466;28;20054;-81
2022/06/07 07:17:59;;;;;;;3.15;1.15;;;28.60;46.00;;;;;;5057450;28;20053;-85
2022/06/07 07:20:28;;;;;;;8.45;1.17;;;28.70;43.40;;;;;;5089150;28;20113;-84
2022/06/07 07:22:59;;;;;;;2.90;0.60;;;28.50;44.10;;;;;;5065124;28;20048;-81
2022/06/07 07:25:26;;;;;;;1.33;0.90;;;28.70;44.60;;;;;;5077106;28;20056;-81
2022/06/07 07:27:56;;;;;;;2.28;0.60;;;28.80;45.30;;;;;;5064283;28;20036;-82
2022/06/07 07:30:29;;;;;;;1.23;0.50;;;29.00;43.40;;;;;;5062212;28;20044;-79
2022/06/07 07:32:57;;;;;;;5.90;1.13;;;29.20;41.70;;;;;;5078028;28;20580;-81
2022/06/07 07:35:25;;;;;;;2.55;0.70;;;29.60;42.00;;;;;;5062236;28;20050;-80
2022/06/07 07:37:59;;;;;;;1.77;0.80;;;29.60;41.40;;;;;;5082424;28;20427;-82
2022/06/07 07:40:26;;;;;;;4.55;1.33;;;29.60;41.60;;;;;;5079069;28;20044;-84
2022/06/07 07:42:58;;;;;;;3.05;0.70;;;29.80;41.40;;;;;;5083332;28;20125;-81
2022/06/07 07:45:31;;;;;;;1.17;0.60;;;29.90;43.00;;;;;;5078300;28;20044;-80
2022/06/07 07:48:01;;;;;;;1.35;0.60;;;30.10;41.00;;;;;;5080341;28;20048;-81
2022/06/07 07:50:33;;;;;;;4.18;0.73;;;30.40;40.90;;;;;;5082586;28;20055;-80
2022/06/07 07:53:01;;;;;;;3.40;0.75;;;30.50;39.70;;;;;;5079984;28;20138;-80
2022/06/07 07:55:32;;;;;;;;;;;30.70;40.30;;;;;;5076883;28;20455;-79
2022/06/07 07:58:05;;;;;;;3.80;0.90;;;30.80;40.70;;;;;;5080121;28;19985;-80
2022/06/07 08:00:34;;;;;;;2.58;0.68;;;30.90;39.80;;;;;;5076932;28;20059;-79
2022/06/07 08:03:08;;;;;;;3.25;0.60;;;31.30;40.90;;;;;;5079550;28;20496;-82
2022/06/07 08:05:41;;;;;;;1.70;0.60;;;31.30;39.40;;;;;;5087770;28;20097;-81
2022/06/07 08:08:09;;;;;;;1.98;0.40;;;31.20;36.90;;;;;;5079915;28;20045;-80
2022/06/07 08:10:36;;;;;;;2.35;1.00;;;31.20;36.70;;;;;;5077946;28;20051;-80
2022/06/07 08:13:05;;;;;;;1.98;0.90;;;31.20;36.90;;;;;;5063076;28;20303;-80
2022/06/07 08:15:33;;;;;;;0.70;0.55;;;31.40;37.50;;;;;;5090416;28;20081;-79
2022/06/07 08:18:03;;;;;;;3.17;0.65;;;31.50;36.10;;;;;;5079715;28;20443;-81
2022/06/07 08:20:33;;;;;;;1.27;0.75;;;31.70;37.00;;;;;;5078447;28;20139;-75
2022/06/07 08:23:01;;;;;;;1.77;0.55;;;31.80;36.50;;;;;;5073606;28;20060;-75
2022/06/07 08:25:28;;;;;;;3.03;0.60;;;31.80;36.80;;;;;;5079176;28;20036;-76
2022/06/07 08:27:55;;;;;;;3.17;0.90;;;31.80;38.40;;;;;;5075190;28;20500;-77
2022/06/07 08:30:24;;;;;;;3.35;1.25;;;31.90;37.20;;;;;;5087779;28;20105;-76
2022/06/07 08:32:51;;;;;;;2.38;0.80;;;32.00;38.10;;;;;;5072613;28;20041;-77
2022/06/07 08:38:05;;;;;;;3.88;0.60;;;32.10;35.40;;;;;;5070560;28;20131;-78
2022/06/07 08:40:35;;;;;;;1.13;0.70;;;32.30;36.00;;;;;;5074642;28;20142;-77
2022/06/07 08:43:09;;;;;;;2.53;0.98;;;32.40;36.50;;;;;;5081217;28;20419;-78
2022/06/07 08:45:41;;;;;;;6.70;1.85;;;32.50;37.30;;;;;;5088412;28;20072;-75
2022/06/07 08:48:14;;;;;;;1.67;1.05;;;32.60;37.20;;;;;;5096122;28;20049;-77
2022/06/07 08:50:45;;;;;;;1.95;0.85;;;32.70;35.30;;;;;;5076799;28;20520;-77
2022/06/07 08:53:18;;;;;;;4.85;0.85;;;32.50;34.70;;;;;;5069845;28;20048;-76
2022/06/07 08:55:46;;;;;;;;;;;32.20;36.00;;;;;;5067685;28;20127;-76
2022/06/07 08:58:19;;;;;;;3.25;1.67;;;32.30;35.20;;;;;;5071073;28;19931;-77
2022/06/07 09:00:50;;;;;;;1.10;0.85;;;32.50;36.20;;;;;;5087335;28;20052;-77
2022/06/07 09:03:46;;;;;;;0.77;0.50;;;32.80;35.50;;;;;;5071259;28;20102;-76
2022/06/07 09:06:20;;;;;;;1.58;1.10;;;32.70;35.30;;;;;;5066455;28;20566;-76
2022/06/07 09:08:51;;;;;;;0.70;0.70;;;33.00;37.60;;;;;;5072273;28;20056;-78
2022/06/07 09:14:07;;;;;;;2.70;1.50;;;33.60;36.30;;;;;;5067852;28;20127;-77
2022/06/07 09:16:41;;;;;;;2.17;0.80;;;33.80;36.20;;;;;;5068606;28;20052;-77
2022/06/07 09:19:16;;;;;;;0.88;0.80;;;34.00;33.70;;;;;;5084599;28;20044;-77
2022/06/07 09:21:45;;;;;;;2.13;0.82;;;33.80;34.80;;;;;;5089171;28;20075;-77
2022/06/07 09:24:21;;;;;;;1.00;0.90;;;33.90;35.80;;;;;;5088500;28;20056;-76
2022/06/07 09:26:48;;;;;;;5.15;1.38;;;34.20;35.10;;;;;;5085037;28;20050;-76
2022/06/07 09:29:19;;;;;;;4.15;1.00;;;34.30;34.40;;;;;;5088684;28;20089;-76
2022/06/07 09:31:50;;;;;;;3.45;0.82;;;34.30;35.10;;;;;;5084109;28;20131;-77
2022/06/07 09:34:21;;;;;;;1.42;1.15;;;34.20;34.50;;;;;;5076439;28;20419;-78
2022/06/07 09:36:54;;;;;;;3.20;1.00;;;34.30;34.90;;;;;;5080434;28;20071;-77
2022/06/07 09:39:28;;;;;;;4.47;1.10;;;34.20;35.30;;;;;;5072019;28;20074;-77
2022/06/07 09:42:01;;;;;;;2.60;1.00;;;34.40;35.80;;;;;;5081815;28;20056;-76
2022/06/07 09:44:32;;;;;;;3.35;0.90;;;34.60;34.00;;;;;;5069875;28;20512;-76
2022/06/07 09:47:04;;;;;;;2.97;0.82;;;34.90;33.90;;;;;;5077175;28;20052;-76
2022/06/07 09:49:36;;;;;;;1.80;0.90;;;35.10;34.30;;;;;;5069263;28;20052;-76
2022/06/07 09:52:14;;;;;;;3.38;2.65;;;35.30;35.10;;;;;;5069536;28;20045;-76
2022/06/07 09:54:44;;;;;;;2.47;1.10;;;35.30;34.20;;;;;;5073468;28;20044;-76
2022/06/07 09:57:32;;;;;;;10.15;1.77;;;35.30;34.60;;;;;;5080815;28;20056;-76
2022/06/07 10:00:32;;;;;;;1.08;0.93;;;35.40;35.20;;;;;;5068662;28;20131;-77
2022/06/07 10:03:14;;;;;;;2.47;0.98;;;35.30;34.10;;;;;;5069808;28;20059;-75
2022/06/07 10:05:47;;;;;;;2.10;0.70;;;35.10;33.40;;;;;;5087072;28;20055;-75
2022/06/07 10:08:34;;;;;;;1.05;0.93;;;35.10;34.60;;;;;;5071644;28;20152;-76
2022/06/07 10:11:07;;;;;;;2.25;0.80;;;35.00;33.50;;;;;;5070905;28;20186;-76
2022/06/07 10:13:50;;;;;;;1.77;0.80;;;35.00;33.80;;;;;;5074063;28;20039;-76
2022/06/07 10:16:26;;;;;;;2.15;1.00;;;35.10;33.70;;;;;;5086438;28;20433;-75
2022/06/07 10:19:09;;;;;;;4.63;0.98;;;35.40;34.60;;;;;;5068442;28;20049;-76
2022/06/07 10:22:05;;;;;;;6.18;0.90;;;35.50;33.70;;;;;;5067464;28;20048;-78
2022/06/07 10:24:49;;;;;;;3.65;0.95;;;35.60;34.30;;;;;;5084991;28;20048;-76
2022/06/07 10:27:20;;;;;;;3.90;1.20;;;35.70;32.30;;;;;;5080374;28;20051;-74
2022/06/07 10:30:15;;;;;;;3.33;1.00;;;36.00;33.30;;;;;;5091530;28;20101;-75
2022/06/07 10:33:01;;;;;;;2.90;0.98;;;36.20;34.50;;;;;;5088285;28;20424;-74
2022/06/07 10:35:42;;;;;;;5.10;1.20;;;36.30;32.90;;;;;;5077975;28;20079;-75
2022/06/07 10:38:42;;;;;;;2.20;1.25;;;36.50;32.70;;;;;;5088774;28;20036;-75
2022/06/07 10:41:17;;;;;;;2.05;0.88;;;36.50;33.20;;;;;;5084820;28;20041;-76
2022/06/07 10:43:57;;;;;;;1.85;0.90;;;36.20;33.20;;;;;;5076585;28;20142;-76
2022/06/07 10:46:28;;;;;;;1.85;0.75;;;36.30;31.20;;;;;;5075354;28;20044;-77
2022/06/07 10:49:12;;;;;;;7.57;1.05;;;36.20;32.60;;;;;;5084218;28;20409;-77
2022/06/07 10:54:41;;;;;;;3.90;0.90;;;36.20;33.20;;;;;;5077285;28;20068;-76
2022/06/07 10:57:16;;;;;;;0.77;0.77;;;36.30;33.20;;;;;;5072312;28;20055;-76
2022/06/07 10:59:45;;;;;;;2.20;1.00;;;36.40;33.40;;;;;;5063680;28;20051;-77
2022/06/07 11:02:27;;;;;;;0.90;0.90;;;36.60;33.60;;;;;;5084990;28;20040;-75
2022/06/07 11:10:37;;;;;;;3.83;0.90;;;36.90;32.10;;;;;;5081545;28;20047;-76
2022/06/07 11:13:17;;;;;;;2.30;0.90;;;36.90;31.20;;;;;;5080496;28;20048;-76
2022/06/07 11:15:55;;;;;;;2.30;0.90;;;37.20;31.30;;;;;;5079752;28;20131;-74
2022/06/07 11:18:25;;;;;;;2.90;1.02;;;37.30;31.90;;;;;;5074984;28;20056;-74
2022/06/07 11:21:12;;;;;;;5.28;0.80;;;37.30;32.20;;;;;;5079325;28;20051;-75
2022/06/07 11:23:56;;;;;;;4.93;0.90;;;37.50;30.60;;;;;;5088661;28;20098;-75
2022/06/07 11:26:24;;;;;;;1.73;0.77;;;37.40;31.50;;;;;;5087126;28;20048;-76
2022/06/07 11:28:53;;;;;;;4.50;1.20;;;37.40;30.50;;;;;;5061190;28;20146;-75
2022/06/07 11:31:42;;;;;;;1.90;1.02;;;37.60;31.70;;;;;;5086567;28;20076;-75
2022/06/07 11:34:22;;;;;;;2.90;1.13;;;37.50;31.50;;;;;;5070750;28;20048;-76
2022/06/07 11:36:50;;;;;;;5.45;1.05;;;37.40;30.70;;;;;;5074569;28;20055;-75
2022/06/07 11:39:30;;;;;;;2.15;1.00;;;37.50;31.30;;;;;;5083241;28;20516;-76
2022/06/07 11:42:20;;;;;;;2.45;0.93;;;37.80;30.70;;;;;;5068416;28;20049;-76
2022/06/07 11:45:17;;;;;;;2.80;1.05;;;37.80;30.60;;;;;;5072016;28;20056;-76
2022/06/07 11:48:13;;;;;;;3.70;0.80;;;37.70;31.50;;;;;;5073767;28;20492;-77
2022/06/07 11:50:43;;;;;;;2.15;1.00;;;38.00;32.00;;;;;;5035251;28;20296;-76
2022/06/07 11:53:29;;;;;;;5.00;1.08;;;38.20;31.70;;;;;;5071834;28;20118;-76
2022/06/07 11:56:15;;;;;;;5.53;1.27;;;38.40;32.10;;;;;;5079608;28;20127;-76
2022/06/07 11:58:58;;;;;;;5.32;1.30;;;38.70;30.70;;;;;;5070122;28;20405;-77
2022/06/07 12:01:47;;;;;;;4.72;1.27;;;38.60;31.50;;;;;;5071221;28;20049;-77
2022/06/07 12:04:36;;;;;;;1.63;1.52;;;38.70;31.50;;;;;;5066223;28;20055;-75
2022/06/07 12:07:13;;;;;;;5.47;1.23;;;38.80;30.80;;;;;;5085682;28;20040;-76
2022/06/07 12:09:47;;;;;;;5.47;1.10;;;39.00;30.80;;;;;;5086832;28;20574;-77
2022/06/07 12:12:28;;;;;;;1.08;0.85;;;38.70;30.80;;;;;;5079980;28;20078;-75
2022/06/07 12:15:03;;;;;;;3.22;1.20;;;38.70;30.60;;;;;;5082973;28;20048;-76
2022/06/07 12:17:31;;;;;;;5.07;1.50;;;38.80;30.20;;;;;;5079600;28;20127;-75
2022/06/07 12:20:00;;;;;;;2.00;1.00;;;38.80;30.90;;;;;;5074537;28;20039;-75
2022/06/07 12:22:41;;;;;;;1.45;0.90;;;38.90;30.30;;;;;;5083605;28;20051;-76
2022/06/07 12:25:17;;;;;;;5.17;1.10;;;38.50;29.60;;;;;;5090911;28;20097;-76
2022/06/07 12:27:49;;;;;;;1.65;1.05;;;38.20;30.00;;;;;;5080685;28;20302;-77
2022/06/07 12:30:25;;;;;;;1.70;1.00;;;38.00;30.70;;;;;;5080525;28;20055;-76
2022/06/07 12:32:54;;;;;;;1.50;0.90;;;38.00;31.30;;;;;;5081494;28;20040;-78
2022/06/07 12:35:25;;;;;;;3.10;1.55;;;38.30;30.70;;;;;;5083606;28;20079;-77
2022/06/07 12:37:56;;;;;;;3.22;1.38;;;38.50;30.90;;;;;;5082062;28;20054;-81
2022/06/07 12:40:30;;;;;;;2.72;1.10;;;38.70;30.90;;;;;;5072818;28;20102;-80
2022/06/07 12:42:58;;;;;;;1.98;1.65;;;38.70;31.20;;;;;;5078732;28;20497;-76
2022/06/07 12:45:32;;;;;;;2.53;1.23;;;38.70;31.20;;;;;;5070062;28;20067;-76
2022/06/07 12:48:02;;;;;;;3.10;1.38;;;38.80;30.30;;;;;;5075151;28;20106;-75
2022/06/07 12:50:34;;;;;;;4.88;1.60;;;39.10;30.90;;;;;;5075117;28;20143;-76
2022/06/07 12:53:01;;;;;;;4.38;1.40;;;39.30;30.80;;;;;;5073992;28;20070;-72
2022/06/07 12:55:31;;;;;;;1.25;1.20;;;39.30;29.50;;;;;;5076165;28;20074;-76
2022/06/07 12:58:13;;;;;;;4.82;1.13;;;39.20;29.70;;;;;;5074034;28;20143;-74
2022/06/07 13:00:43;;;;;;;6.57;1.73;;;38.90;29.50;;;;;;5075942;28;20044;-74
2022/06/07 13:03:25;;;;;;;4.65;1.17;;;39.00;30.00;;;;;;5068772;28;20064;-74
2022/06/07 13:05:58;;;;;;;2.03;1.00;;;39.00;29.70;;;;;;5070350;28;20080;-75
2022/06/07 13:08:32;;;;;;;1.40;1.02;;;39.30;30.80;;;;;;5070273;28;20480;-76
2022/06/07 13:11:06;;;;;;;5.00;2.20;;;39.30;29.70;;;;;;5076243;28;20060;-73
2022/06/07 13:13:40;;;;;;;4.30;1.40;;;39.30;29.50;;;;;;5069937;28;20062;-75
2022/06/07 13:16:31;;;;;;;3.25;1.35;;;39.10;30.20;;;;;;5068693;28;20110;-73
2022/06/07 13:19:02;;;;;;;4.43;1.17;;;39.00;30.20;;;;;;5055112;28;20074;-73
2022/06/07 13:21:33;;;;;;;4.43;1.40;;;39.20;30.00;;;;;;5070573;28;20045;-76
2022/06/07 13:24:01;;;;;;;;;;;39.30;29.60;;;;;;5067920;28;20063;-76
2022/06/07 13:26:30;;;;;;;8.13;1.80;;;39.30;29.50;;;;;;5073704;28;19928;-77
2022/06/07 13:29:10;;;;;;;3.85;1.15;;;39.10;29.50;;;;;;5079220;28;20056;-78
2022/06/07 13:31:52;;;;;;;6.90;1.25;;;39.00;29.70;;;;;;5086114;28;20044;-77
2022/06/07 13:34:22;;;;;;;3.70;1.40;;;38.80;29.20;;;;;;5088940;28;20524;-76
2022/06/07 13:37:09;;;;;;;5.38;1.30;;;38.70;29.30;;;;;;5084248;28;20080;-78